Terminal Aerodrome Forecast
Issued by NWS Paducah, KY

Home | Current Version | Previous Version | Graphics & Text | Print | Product List | Glossary On
Versions: 1 2 3 4 5 6 7 8 9 10 11 12 13 14 15 16 17 18 19 20
898
FTUS43 KPAH 211418 AAA
TAFEVV
TAF AMD
KEVV 211418Z 2114/2212 VRB04KT P6SM SCT040
     FM211500 19008KT P6SM SCT040
     FM220100 15004KT P6SM SKC=

USA.gov is the U.S. government's official web portal to all federal, state and local government web resources and services.